עמוד ראשי
METAR-TAF:

METAR-TAF

שדות תעופה :

Tumbes, פרו

קו רוחב: 03-33S, קו אורך: 080-24W, גובה: 25מטר

תצפית מזג אוויר נוכחית

הדו"ח נערך לפני 12 שעות ו 9דקות, בשעה 03:00 UTC
רוח 3קשר מכיוון מזרח/צפון-מזרח
טמפרטורת 28 צלסיוס
לחות 70%
לחץ 1011 hPa
ראות 10 קילומטר או יותר
עננים בינוניים בגובה 1700רגל

METAR: SPME 240300Z 07003KT 9999 BKN017 28/22 Q1011 RMK BIRD HAZARD RWY 32/14 PP000

זמן: 10:09 (15:09 UTC)

תחזית

הדו"ח נערך לפני 3 שעות ו 59דקות, בשעה 11:10 UTC
תחזית בתוקף מ 24 ב 12 UTC עד 25 ב 12 UTC
רוח 7קשר מכיוון מערב/צפון-מערב
ראות 10 קילומטר או יותר
עננים בינוניים בגובה 2000רגל
זמנית מ -
24 ב 12 UTC עד 24 ב 14 UTC
ראות: 4000מטר
עננים בינוניים בגובה 1000רגל
אד,

TAF: SPME 241110Z 2412/2512 30007KT 9999 BKN020 TX34/2419Z TN25/2511Z TEMPO 2412/2414 4000 BR BKN010

תצפיות ותחזיות מזג אוויר לגבי יותר מ- 4,000 שדות תעופה ברחבי העולם. דוחות METAR ו- TAF.

התחנות הזמינות מסומנות בנקודות צהובות ואדומות על גבי המפה.

העבר את העכבר לנקודה הצבעונית על מנת לראות את שם התחנה.

לאחר מכן, לחץ כדי לראות את תוכן ואת תחזיות מזג האוויר.

כדי לשנות את המפה: לחץ על הכפתורים הירוקים עם הפלוס השחור כדי להתקרב; על הכפתור הירוק עם המקף כדי להתרחק; או בחיצים הירוקים למפות סמוכות.


METAR-TAF: